Time;durP1;ratioP1;P1;durP2;ratioP2;P2;SDS_P1;SDS_P2;PMS_P1;PMS_P2;Temp;Humidity;BMP_temperature;BMP_pressure;BME280_temperature;BME280_humidity;BME280_pressure;Samples;Min_cycle;Max_cycle;Signal;HPM_P1;HPM_P2
2022/03/18 00:00:53;;;;;;;15.30;5.50;;;5.20;76.70;;;;;;5016052;28;20029;-76
2022/03/18 00:03:19;;;;;;;12.90;4.77;;;5.20;76.80;;;;;;5032413;28;20041;-77
2022/03/18 00:05:44;;;;;;;12.17;4.70;;;5.20;76.90;;;;;;5016067;28;20036;-77
2022/03/18 00:08:10;;;;;;;10.53;5.07;;;5.20;77.30;;;;;;5032446;28;20540;-77
2022/03/18 00:10:36;;;;;;;10.93;4.30;;;5.20;77.60;;;;;;5032445;28;20084;-77
2022/03/18 00:13:02;;;;;;;11.00;4.47;;;5.20;77.90;;;;;;5016233;28;20039;-76
2022/03/18 00:15:28;;;;;;;12.47;4.93;;;5.20;78.00;;;;;;5032777;28;20079;-76
2022/03/18 00:17:54;;;;;;;13.77;6.00;;;5.20;78.10;;;;;;5033595;28;20037;-77
2022/03/18 00:20:20;;;;;;;14.80;5.00;;;5.20;78.20;;;;;;5032329;28;20550;-76
2022/03/18 00:22:47;;;;;;;13.13;4.93;;;5.10;78.30;;;;;;5033531;28;20055;-76
2022/03/18 00:25:14;;;;;;;9.43;4.63;;;5.10;78.50;;;;;;5032344;28;20026;-76
2022/03/18 00:27:42;;;;;;;10.47;4.57;;;5.00;78.60;;;;;;5032374;28;20393;-76
2022/03/18 00:30:10;;;;;;;14.27;4.57;;;5.00;78.70;;;;;;5032599;28;20059;-76
2022/03/18 00:32:38;;;;;;;10.77;4.53;;;5.00;78.90;;;;;;5032645;28;20450;-76
2022/03/18 00:35:06;;;;;;;12.60;4.53;;;4.90;79.00;;;;;;5032471;28;20017;-77
2022/03/18 00:37:32;;;;;;;10.30;4.77;;;4.90;79.00;;;;;;5032547;28;20136;-76
2022/03/18 00:39:58;;;;;;;11.67;4.27;;;4.90;79.00;;;;;;5033632;28;20053;-77
2022/03/18 00:42:23;;;;;;;16.10;5.87;;;4.90;79.10;;;;;;5016500;28;20026;-76
2022/03/18 00:44:49;;;;;;;13.07;5.13;;;4.70;79.00;;;;;;5032606;28;20509;-76
2022/03/18 00:52:43;;;;;;;12.23;4.75;;;4.70;79.40;;;;;;5032960;28;20508;-77
2022/03/18 00:55:09;;;;;;;14.60;4.90;;;4.70;79.40;;;;;;5032308;28;20033;-76
2022/03/18 00:57:35;;;;;;;15.50;5.00;;;4.60;79.40;;;;;;5032366;28;20454;-77
2022/03/18 01:00:00;;;;;;;10.77;4.57;;;4.60;79.50;;;;;;5031813;28;20095;-77
2022/03/18 01:02:26;;;;;;;11.77;5.03;;;4.60;80.30;;;;;;4999140;28;20046;-77
2022/03/18 01:04:52;;;;;;;13.83;5.17;;;4.50;79.70;;;;;;5032230;28;20152;-76
2022/03/18 01:07:17;;;;;;;15.73;4.77;;;4.50;79.80;;;;;;5032131;28;20112;-77
2022/03/18 01:09:43;;;;;;;11.87;4.47;;;4.60;80.00;;;;;;5015534;28;20041;-76
2022/03/18 01:12:09;;;;;;;10.43;4.50;;;4.40;80.10;;;;;;5015637;28;20129;-77
2022/03/18 01:14:35;;;;;;;12.03;4.37;;;4.40;80.40;;;;;;5031998;28;20029;-76
2022/03/18 01:17:01;;;;;;;13.20;4.87;;;4.40;80.40;;;;;;5033525;28;20056;-76
2022/03/18 01:19:26;;;;;;;13.93;4.13;;;4.40;80.60;;;;;;5033187;28;20034;-76
2022/03/18 01:21:52;;;;;;;11.80;4.73;;;4.40;80.80;;;;;;5014836;28;20033;-76
2022/03/18 01:24:17;;;;;;;12.67;4.23;;;4.40;81.00;;;;;;5031877;28;20068;-76
2022/03/18 01:26:43;;;;;;;15.63;4.13;;;4.30;81.10;;;;;;5016249;28;20041;-76
2022/03/18 01:29:10;;;;;;;14.47;4.60;;;4.50;81.40;;;;;;5019982;28;20501;-76
2022/03/18 01:31:36;;;;;;;11.30;4.50;;;4.30;81.40;;;;;;5035821;28;20401;-76
2022/03/18 01:34:02;;;;;;;12.77;4.67;;;4.40;81.90;;;;;;5035939;28;20031;-77
2022/03/18 01:36:28;;;;;;;13.60;5.03;;;4.30;82.00;;;;;;5036663;28;20393;-76
2022/03/18 01:38:54;;;;;;;14.00;4.87;;;4.40;82.30;;;;;;5019000;28;20025;-77
2022/03/18 01:41:20;;;;;;;15.53;4.37;;;4.30;82.50;;;;;;5035500;28;20030;-76
2022/03/18 01:43:47;;;;;;;15.33;4.67;;;4.50;82.80;;;;;;5035703;28;20037;-76
2022/03/18 01:46:14;;;;;;;9.03;3.43;;;4.30;83.00;;;;;;5036862;28;20109;-76
2022/03/18 01:48:40;;;;;;;9.50;2.97;;;4.30;83.30;;;;;;5019624;28;20052;-76
2022/03/18 01:51:07;;;;;;;13.43;4.10;;;4.30;83.60;;;;;;5036554;28;20100;-77
2022/03/18 01:53:38;;;;;;;13.53;4.10;;;4.30;83.80;;;;;;5035148;28;20037;-76
2022/03/18 01:56:05;;;;;;;12.37;3.50;;;4.30;84.30;;;;;;5036378;28;20030;-76
2022/03/18 01:58:31;;;;;;;14.73;4.20;;;4.30;84.10;;;;;;5036366;28;20025;-77
2022/03/18 02:00:57;;;;;;;12.20;4.40;;;4.30;84.20;;;;;;5036272;28;20458;-76
2022/03/18 02:03:22;;;;;;;13.83;4.17;;;4.30;84.30;;;;;;5015612;28;20050;-76
2022/03/18 02:05:48;;;;;;;11.37;3.70;;;4.30;84.20;;;;;;5016564;28;20068;-77
2022/03/18 02:08:18;;;;;;;12.27;4.23;;;4.30;84.30;;;;;;5015954;28;20041;-76
2022/03/18 02:10:45;;;;;;;10.53;3.77;;;4.30;84.30;;;;;;5015221;28;20367;-76
2022/03/18 02:13:11;;;;;;;11.10;4.13;;;4.30;84.40;;;;;;4998748;28;20026;-76
2022/03/18 02:15:36;;;;;;;15.93;4.43;;;4.20;85.20;;;;;;5014830;28;20079;-76
2022/03/18 02:18:05;;;;;;;14.03;4.00;;;4.20;84.70;;;;;;5016331;28;20100;-76
2022/03/18 02:20:34;;;;;;;10.53;3.73;;;4.20;84.90;;;;;;5016439;28;20065;-76
2022/03/18 02:23:04;;;;;;;11.23;3.40;;;4.10;85.50;;;;;;5015291;28;20029;-76
2022/03/18 02:25:30;;;;;;;12.97;3.40;;;4.10;85.10;;;;;;5015064;28;20109;-76
2022/03/18 02:28:02;;;;;;;12.13;3.53;;;4.10;85.20;;;;;;5016244;28;20029;-76
2022/03/18 02:30:30;;;;;;;10.00;3.50;;;4.10;85.20;;;;;;5016056;28;20025;-76
2022/03/18 02:32:56;;;;;;;9.93;3.60;;;4.10;85.30;;;;;;5014878;28;20072;-76
2022/03/18 02:35:22;;;;;;;11.57;3.20;;;4.10;85.40;;;;;;4998329;28;20022;-76
2022/03/18 02:37:48;;;;;;;9.27;3.70;;;4.10;85.40;;;;;;5014735;28;20442;-76
2022/03/18 02:40:15;;;;;;;9.93;3.67;;;4.10;85.50;;;;;;5015274;28;20063;-76
2022/03/18 02:42:41;;;;;;;11.87;2.80;;;4.00;85.60;;;;;;4998622;28;20054;-76
2022/03/18 02:45:08;;;;;;;9.07;3.13;;;4.00;85.70;;;;;;5015876;28;20096;-76
2022/03/18 02:47:34;;;;;;;8.47;2.87;;;4.00;85.80;;;;;;5015658;28;20030;-76
2022/03/18 02:50:00;;;;;;;8.33;3.00;;;4.00;85.90;;;;;;5014507;28;20084;-76
2022/03/18 02:52:25;;;;;;;8.87;2.90;;;4.00;86.00;;;;;;5014395;28;20036;-76
2022/03/18 02:54:51;;;;;;;12.80;3.43;;;4.00;86.20;;;;;;5014424;28;20466;-76
2022/03/18 02:57:17;;;;;;;10.10;3.43;;;4.00;86.30;;;;;;4998085;28;20026;-76
2022/03/18 02:59:42;;;;;;;10.60;2.90;;;4.00;86.40;;;;;;5014068;28;20474;-76
2022/03/18 03:02:08;;;;;;;9.43;2.83;;;3.90;86.40;;;;;;5007580;28;20049;-76
2022/03/18 03:04:34;;;;;;;9.73;3.00;;;3.90;86.50;;;;;;5017504;28;20378;-76
2022/03/18 03:09:43;;;;;;;13.75;4.78;;;3.90;86.80;;;;;;5034416;28;20131;-76
2022/03/18 03:12:09;;;;;;;10.80;2.80;;;3.90;86.80;;;;;;5034971;28;20481;-76
2022/03/18 03:14:36;;;;;;;11.20;4.37;;;3.90;86.80;;;;;;5033865;28;20033;-76
2022/03/18 03:17:03;;;;;;;8.20;3.07;;;3.90;86.90;;;;;;5017257;28;20026;-76
2022/03/18 03:19:29;;;;;;;8.73;2.80;;;3.90;87.20;;;;;;5034892;28;20022;-76
2022/03/18 03:21:55;;;;;;;12.70;3.17;;;3.90;87.40;;;;;;5035099;28;20087;-76
2022/03/18 03:24:21;;;;;;;9.47;2.70;;;3.80;87.60;;;;;;5016937;28;20112;-76
2022/03/18 03:26:46;;;;;;;10.60;2.93;;;3.90;88.00;;;;;;5033691;28;20095;-76
2022/03/18 03:29:12;;;;;;;11.17;3.40;;;3.80;88.10;;;;;;5034790;28;20533;-76
2022/03/18 03:31:38;;;;;;;9.10;2.80;;;3.90;88.30;;;;;;5034666;28;20030;-76
2022/03/18 03:34:03;;;;;;;13.13;3.67;;;3.80;88.50;;;;;;5033404;28;20025;-76
2022/03/18 03:36:29;;;;;;;8.63;3.07;;;3.80;88.60;;;;;;5033473;28;20026;-76
2022/03/18 03:38:55;;;;;;;7.97;2.93;;;3.80;88.70;;;;;;5034747;28;20462;-76
2022/03/18 03:41:22;;;;;;;11.33;2.80;;;3.80;88.90;;;;;;5033225;28;20025;-76
2022/03/18 03:43:48;;;;;;;11.73;3.03;;;3.70;89.10;;;;;;5017163;28;20053;-76
2022/03/18 03:46:14;;;;;;;14.27;3.47;;;3.80;89.30;;;;;;5016885;28;20021;-76
2022/03/18 03:48:39;;;;;;;10.37;2.87;;;3.80;89.60;;;;;;5033396;28;20048;-76
2022/03/18 03:51:05;;;;;;;9.93;2.70;;;3.70;89.80;;;;;;5033245;28;20025;-76
2022/03/18 03:53:31;;;;;;;7.57;2.77;;;3.70;90.00;;;;;;5042940;28;20033;-77
2022/03/18 03:55:57;;;;;;;12.30;2.93;;;3.70;90.10;;;;;;5051861;28;20025;-76
2022/03/18 03:58:22;;;;;;;7.67;2.67;;;3.70;90.10;;;;;;5053159;28;20021;-77
2022/03/18 04:00:48;;;;;;;10.67;2.90;;;3.70;90.20;;;;;;5054058;28;20032;-75
2022/03/18 04:03:14;;;;;;;9.47;2.57;;;3.70;90.30;;;;;;5052740;28;20079;-76
2022/03/18 04:05:39;;;;;;;13.93;3.00;;;3.60;90.30;;;;;;5052614;28;20024;-76
2022/03/18 04:08:05;;;;;;;6.00;2.23;;;3.60;90.40;;;;;;5036428;28;20560;-77
2022/03/18 04:10:31;;;;;;;9.53;3.30;;;3.60;90.50;;;;;;5036145;28;20029;-76
2022/03/18 04:12:56;;;;;;;9.13;2.53;;;3.50;90.50;;;;;;5052524;28;20029;-76
2022/03/18 04:15:23;;;;;;;9.00;2.50;;;3.50;90.50;;;;;;5036012;28;20511;-76
2022/03/18 04:17:49;;;;;;;7.73;2.57;;;3.50;90.50;;;;;;5054159;28;20428;-76
2022/03/18 04:20:23;;;;;;;9.67;2.90;;;3.50;90.60;;;;;;5054115;28;20098;-76
2022/03/18 04:22:50;;;;;;;7.97;2.42;;;3.50;90.60;;;;;;5054171;28;20482;-76
2022/03/18 04:25:15;;;;;;;10.43;3.10;;;3.50;91.00;;;;;;5053697;28;20484;-76
2022/03/18 04:27:42;;;;;;;9.17;2.97;;;3.40;90.80;;;;;;5054080;28;20033;-76
2022/03/18 04:30:10;;;;;;;14.10;3.77;;;3.40;90.80;;;;;;5052337;28;20056;-76
2022/03/18 04:32:36;;;;;;;9.37;3.00;;;3.40;90.90;;;;;;5053857;28;20031;-76
2022/03/18 04:35:03;;;;;;;6.43;2.50;;;3.40;91.30;;;;;;5035918;28;20108;-76
2022/03/18 04:37:28;;;;;;;8.13;2.40;;;3.40;91.00;;;;;;5035991;28;20029;-77
2022/03/18 04:39:54;;;;;;;10.83;3.10;;;3.40;91.20;;;;;;5053513;28;20032;-76
2022/03/18 04:42:20;;;;;;;9.20;2.83;;;3.40;91.30;;;;;;5053839;28;20067;-76
2022/03/18 04:44:45;;;;;;;8.27;2.73;;;3.40;91.30;;;;;;5052193;28;20079;-76
2022/03/18 04:47:11;;;;;;;11.50;2.67;;;3.40;91.30;;;;;;5053630;28;20033;-76
2022/03/18 04:49:38;;;;;;;13.57;2.50;;;3.40;91.40;;;;;;5051983;28;20457;-76
2022/03/18 04:52:04;;;;;;;7.63;2.20;;;3.40;91.60;;;;;;5052136;28;20033;-76
2022/03/18 04:54:30;;;;;;;8.53;2.40;;;3.40;91.60;;;;;;5051739;28;20025;-76
2022/03/18 04:59:40;;;;;;;7.25;3.00;;;3.40;91.90;;;;;;5053494;28;20032;-76
2022/03/18 05:02:06;;;;;;;6.67;2.10;;;3.40;92.00;;;;;;5037931;28;20080;-76
2022/03/18 05:04:32;;;;;;;9.63;2.80;;;3.40;92.10;;;;;;5042265;28;20082;-76
2022/03/18 05:06:58;;;;;;;8.40;2.50;;;3.50;92.20;;;;;;5040480;28;20515;-76
2022/03/18 05:09:25;;;;;;;8.00;2.70;;;3.40;92.20;;;;;;5038457;28;20056;-76
2022/03/18 05:11:51;;;;;;;9.37;2.93;;;3.40;92.60;;;;;;5038633;28;20029;-76
2022/03/18 05:14:17;;;;;;;6.03;2.50;;;3.40;92.40;;;;;;5039521;28;20033;-76
2022/03/18 05:16:43;;;;;;;9.50;2.07;;;3.50;92.50;;;;;;5021918;28;20032;-76
2022/03/18 05:19:09;;;;;;;9.30;3.10;;;3.40;92.50;;;;;;5038485;28;20030;-76
2022/03/18 05:21:36;;;;;;;6.50;2.47;;;3.40;92.60;;;;;;5039520;28;20485;-76
2022/03/18 05:24:02;;;;;;;9.60;2.87;;;3.40;92.70;;;;;;5039509;28;20529;-76
2022/03/18 05:26:28;;;;;;;7.20;2.80;;;3.40;92.90;;;;;;5039771;28;20455;-76
2022/03/18 05:28:53;;;;;;;12.73;3.17;;;3.40;92.90;;;;;;5038701;28;20096;-76
2022/03/18 05:31:19;;;;;;;9.27;3.73;;;3.40;93.00;;;;;;5039522;28;20044;-76
2022/03/18 05:33:44;;;;;;;8.60;2.97;;;3.40;92.90;;;;;;5038281;28;20043;-76
2022/03/18 05:36:10;;;;;;;8.23;3.03;;;3.30;92.70;;;;;;5038771;28;20043;-76
2022/03/18 05:38:36;;;;;;;8.17;3.73;;;3.40;92.70;;;;;;5038418;28;20051;-76
2022/03/18 05:41:01;;;;;;;7.83;3.57;;;3.20;92.60;;;;;;5039499;28;20060;-76
2022/03/18 05:43:27;;;;;;;7.77;3.30;;;3.20;92.70;;;;;;5021642;28;20072;-76
2022/03/18 05:45:52;;;;;;;9.27;2.97;;;3.20;92.70;;;;;;5052065;28;20066;-76
2022/03/18 05:48:18;;;;;;;8.53;3.43;;;3.20;92.80;;;;;;5039724;28;20056;-76
2022/03/18 05:50:44;;;;;;;9.70;3.10;;;3.20;92.90;;;;;;5031188;28;20127;-76
2022/03/18 05:53:09;;;;;;;7.90;3.50;;;3.20;92.90;;;;;;5037750;28;20087;-75
2022/03/18 05:58:21;;;;;;;9.70;3.63;;;3.20;92.80;;;;;;5039690;28;20028;-76
2022/03/18 06:00:48;;;;;;;10.87;3.23;;;3.20;93.10;;;;;;5038965;28;20022;-76
2022/03/18 06:03:14;;;;;;;8.63;3.10;;;3.20;92.80;;;;;;5038176;28;20072;-76
2022/03/18 06:05:42;;;;;;;7.77;2.77;;;3.10;92.80;;;;;;5055236;28;20106;-76
2022/03/18 06:13:39;;;;;;;9.17;3.00;;;3.10;92.90;;;;;;5037935;28;20044;-76
2022/03/18 06:16:05;;;;;;;8.37;3.17;;;3.30;93.00;;;;;;5034785;28;20021;-76
2022/03/18 06:18:31;;;;;;;8.93;3.47;;;3.20;93.00;;;;;;5034773;28;20033;-76
2022/03/18 06:20:56;;;;;;;10.40;3.27;;;3.20;93.00;;;;;;5051525;28;20486;-76
2022/03/18 06:23:22;;;;;;;14.03;3.30;;;3.20;93.10;;;;;;5051289;28;20051;-76
2022/03/18 06:25:48;;;;;;;7.70;2.90;;;3.20;93.10;;;;;;5035808;28;20188;-76
2022/03/18 06:28:13;;;;;;;12.13;4.13;;;3.30;93.10;;;;;;5034537;28;20033;-77
2022/03/18 06:30:39;;;;;;;14.50;5.20;;;3.30;93.10;;;;;;5035551;28;20025;-76
2022/03/18 06:33:05;;;;;;;7.47;3.37;;;3.20;93.10;;;;;;5035605;28;20105;-76
2022/03/18 06:35:30;;;;;;;12.23;3.33;;;3.30;93.20;;;;;;5030806;28;20032;-77
2022/03/18 06:37:56;;;;;;;15.37;3.20;;;3.30;93.30;;;;;;5048346;28;20040;-76
2022/03/18 06:40:22;;;;;;;13.40;3.73;;;3.40;93.40;;;;;;5039954;28;20037;-76
2022/03/18 06:42:47;;;;;;;9.67;3.87;;;3.40;93.40;;;;;;5034081;28;20386;-76
2022/03/18 06:45:13;;;;;;;8.73;3.17;;;3.40;93.40;;;;;;5049629;28;20038;-76
2022/03/18 06:47:39;;;;;;;12.73;4.23;;;3.50;93.50;;;;;;5033644;28;20025;-76
2022/03/18 06:50:05;;;;;;;12.50;3.60;;;3.50;93.50;;;;;;5035569;28;20078;-76
2022/03/18 06:52:31;;;;;;;11.60;3.60;;;3.60;93.60;;;;;;5045412;28;20378;-76
2022/03/18 06:54:56;;;;;;;10.40;3.80;;;3.60;93.60;;;;;;5053975;28;20035;-77
2022/03/18 06:57:22;;;;;;;9.77;3.97;;;3.70;93.70;;;;;;5035674;28;20025;-76
2022/03/18 06:59:48;;;;;;;15.67;5.90;;;3.70;93.70;;;;;;5038719;28;20485;-76
2022/03/18 07:02:15;;;;;;;12.63;4.10;;;3.70;93.80;;;;;;5039985;28;20037;-77
2022/03/18 07:04:40;;;;;;;11.40;3.90;;;3.80;93.80;;;;;;5040205;28;20107;-77
2022/03/18 07:07:06;;;;;;;10.77;4.17;;;3.80;93.90;;;;;;5044847;28;20064;-76
2022/03/18 07:09:32;;;;;;;9.70;4.57;;;3.90;94.00;;;;;;5017575;28;20025;-76
2022/03/18 07:12:01;;;;;;;9.53;4.13;;;3.90;94.10;;;;;;5033898;28;20037;-76
2022/03/18 07:14:26;;;;;;;9.30;3.80;;;4.00;94.20;;;;;;5033542;28;20029;-76
2022/03/18 07:19:38;;;;;;;12.50;4.45;;;4.10;94.30;;;;;;5033662;28;20041;-76
2022/03/18 07:22:05;;;;;;;9.63;4.33;;;4.30;94.30;;;;;;5033285;28;20036;-76
2022/03/18 07:24:30;;;;;;;11.13;4.43;;;4.30;94.30;;;;;;5032453;28;20072;-76
2022/03/18 07:26:56;;;;;;;13.23;4.13;;;4.40;94.40;;;;;;5033188;28;20033;-77
2022/03/18 07:29:22;;;;;;;11.30;3.83;;;4.40;94.40;;;;;;5016589;28;20383;-76
2022/03/18 07:31:51;;;;;;;14.43;3.80;;;4.50;94.50;;;;;;5033153;28;20116;-75
2022/03/18 07:34:16;;;;;;;13.67;4.57;;;4.50;94.50;;;;;;5033198;28;20029;-76
2022/03/18 07:36:42;;;;;;;14.87;4.80;;;4.60;94.50;;;;;;5033518;28;20026;-76
2022/03/18 07:39:08;;;;;;;10.20;4.33;;;4.70;94.50;;;;;;5033641;28;20454;-77
2022/03/18 07:41:34;;;;;;;14.70;3.70;;;4.80;94.50;;;;;;5016986;28;20359;-75
2022/03/18 07:44:00;;;;;;;12.33;4.63;;;4.80;94.50;;;;;;5034549;28;20033;-76
2022/03/18 07:46:26;;;;;;;10.93;4.80;;;4.90;94.50;;;;;;5045612;28;20048;-76
2022/03/18 07:48:51;;;;;;;12.47;4.43;;;5.00;94.50;;;;;;5036550;28;20047;-76
2022/03/18 07:51:17;;;;;;;16.50;5.03;;;5.00;94.60;;;;;;5033192;28;20049;-75
2022/03/18 07:53:43;;;;;;;16.07;5.10;;;5.10;94.60;;;;;;5051270;28;20060;-75
2022/03/18 07:56:09;;;;;;;11.53;5.03;;;5.20;94.70;;;;;;5054263;28;20118;-76
2022/03/18 07:58:34;;;;;;;13.97;4.90;;;5.20;94.70;;;;;;5052833;28;20537;-75
2022/03/18 08:01:00;;;;;;;13.27;4.13;;;5.40;94.70;;;;;;5052900;28;20025;-76
2022/03/18 08:03:26;;;;;;;11.03;4.63;;;5.40;94.70;;;;;;5052751;28;20055;-75
2022/03/18 08:05:51;;;;;;;11.93;5.03;;;5.50;94.70;;;;;;5036515;28;20420;-75
2022/03/18 08:08:17;;;;;;;11.17;4.60;;;5.50;94.70;;;;;;5052756;28;20096;-75
2022/03/18 08:10:43;;;;;;;16.33;4.27;;;5.70;94.80;;;;;;5054121;28;20480;-74
2022/03/18 08:13:09;;;;;;;8.93;3.63;;;5.70;94.80;;;;;;5036242;28;20025;-75
2022/03/18 08:15:35;;;;;;;15.13;5.17;;;5.80;94.80;;;;;;5053763;28;20037;-75
2022/03/18 08:18:02;;;;;;;16.63;5.23;;;5.90;94.80;;;;;;5051902;28;20028;-76
2022/03/18 08:20:29;;;;;;;11.40;4.60;;;6.00;94.80;;;;;;5052598;28;20025;-76
2022/03/18 08:22:55;;;;;;;11.93;4.57;;;6.10;94.80;;;;;;5053804;28;20119;-75
2022/03/18 08:25:21;;;;;;;14.73;4.73;;;6.20;94.70;;;;;;5053981;28;20043;-76
2022/03/18 08:27:48;;;;;;;11.23;4.40;;;6.30;94.60;;;;;;5052521;28;20162;-75
2022/03/18 08:30:15;;;;;;;13.83;4.43;;;6.40;94.50;;;;;;5053517;28;20044;-76
2022/03/18 08:32:41;;;;;;;9.37;3.63;;;6.50;94.40;;;;;;5053554;28;20037;-76
2022/03/18 08:35:08;;;;;;;10.87;3.60;;;6.60;94.30;;;;;;5052071;28;20037;-75
2022/03/18 08:40:18;;;;;;;9.48;2.97;;;6.80;94.10;;;;;;5053910;28;20040;-76
2022/03/18 08:42:44;;;;;;;12.40;3.30;;;6.90;94.00;;;;;;5052417;28;20036;-75
2022/03/18 08:45:10;;;;;;;13.60;3.30;;;7.00;93.80;;;;;;5053547;28;20025;-75
2022/03/18 08:47:36;;;;;;;13.33;3.00;;;7.10;93.60;;;;;;5053156;28;20025;-75
2022/03/18 08:50:03;;;;;;;12.30;2.90;;;7.20;93.40;;;;;;5053379;28;20025;-75
2022/03/18 08:52:29;;;;;;;12.50;3.23;;;7.30;93.20;;;;;;5053250;28;20036;-75
2022/03/18 08:54:54;;;;;;;8.50;3.03;;;7.40;93.00;;;;;;5053301;28;20037;-75
2022/03/18 08:57:20;;;;;;;6.87;2.37;;;7.50;92.80;;;;;;5035439;28;20029;-75
2022/03/18 08:59:45;;;;;;;7.87;2.57;;;7.60;92.50;;;;;;5053438;28;20032;-75
2022/03/18 09:02:11;;;;;;;9.80;2.87;;;7.70;92.30;;;;;;5035145;28;20052;-74
2022/03/18 09:04:37;;;;;;;8.53;2.50;;;7.80;92.10;;;;;;5052457;28;20029;-75
2022/03/18 09:07:03;;;;;;;8.57;2.70;;;7.90;91.90;;;;;;5051780;28;20102;-76
2022/03/18 09:09:29;;;;;;;13.80;3.00;;;8.10;91.70;;;;;;5051509;28;20029;-76
2022/03/18 09:11:55;;;;;;;9.07;2.90;;;8.20;91.40;;;;;;5052958;28;20040;-76
2022/03/18 09:14:21;;;;;;;9.97;3.03;;;8.30;91.00;;;;;;5053158;28;20033;-77
2022/03/18 09:16:49;;;;;;;11.40;2.80;;;8.40;90.70;;;;;;5053400;28;20056;-76
2022/03/18 09:19:15;;;;;;;8.30;2.30;;;8.60;90.50;;;;;;5051666;28;20397;-76
2022/03/18 09:21:41;;;;;;;9.03;2.90;;;8.60;90.20;;;;;;5053021;28;20140;-77
2022/03/18 09:24:07;;;;;;;12.00;2.57;;;8.70;89.60;;;;;;5053022;28;20067;-76
2022/03/18 09:26:32;;;;;;;8.80;2.30;;;8.90;88.80;;;;;;5030723;28;20044;-76
2022/03/18 09:28:58;;;;;;;11.20;3.10;;;9.00;88.30;;;;;;5031575;28;20033;-77
2022/03/18 09:31:23;;;;;;;11.80;2.60;;;9.10;87.60;;;;;;5031731;28;20126;-77
2022/03/18 09:33:49;;;;;;;8.40;2.13;;;9.20;86.90;;;;;;5031682;28;20034;-76
2022/03/18 09:36:18;;;;;;;12.27;2.50;;;9.30;85.70;;;;;;5040904;28;20079;-76
2022/03/18 09:38:45;;;;;;;6.60;1.77;;;9.40;85.40;;;;;;5027455;28;20044;-76
2022/03/18 09:41:11;;;;;;;9.63;1.90;;;9.50;84.90;;;;;;5032796;28;20075;-76
2022/03/18 09:43:38;;;;;;;9.47;1.70;;;9.60;83.30;;;;;;4998986;28;20030;-76
2022/03/18 09:46:11;;;;;;;10.10;1.93;;;9.70;83.30;;;;;;5031776;28;20026;-78
2022/03/18 09:48:38;;;;;;;9.20;2.00;;;9.80;81.30;;;;;;5033266;28;20051;-77
2022/03/18 09:51:04;;;;;;;6.87;1.47;;;9.90;80.80;;;;;;5035176;28;20018;-78
2022/03/18 09:53:30;;;;;;;5.33;1.40;;;10.00;80.90;;;;;;5035376;28;20075;-77
2022/03/18 09:55:55;;;;;;;7.67;1.40;;;10.10;79.70;;;;;;5035072;28;20059;-77
2022/03/18 09:58:22;;;;;;;6.80;1.60;;;10.20;79.90;;;;;;5018506;28;20072;-77
2022/03/18 10:00:50;;;;;;;6.57;1.63;;;10.30;78.80;;;;;;5035013;28;20037;-78
2022/03/18 10:03:17;;;;;;;6.20;1.17;;;10.40;78.30;;;;;;5035137;28;20172;-78
2022/03/18 10:05:59;;;;;;;6.47;1.42;;;10.60;77.70;;;;;;5051751;28;20032;-74
2022/03/18 10:08:37;;;;;;;4.40;1.30;;;10.80;76.10;;;;;;5055878;28;20051;-73
2022/03/18 10:11:23;;;;;;;5.47;1.52;;;11.10;75.20;;;;;;5056172;28;20049;-73
2022/03/18 10:13:52;;;;;;;5.95;1.67;;;11.50;74.00;;;;;;5055866;28;20029;-73
2022/03/18 10:16:38;;;;;;;4.95;1.13;;;12.00;74.00;;;;;;5054509;28;20033;-73
2022/03/18 10:19:07;;;;;;;8.77;1.13;;;12.60;73.50;;;;;;5056061;28;20028;-73
2022/03/18 10:21:48;;;;;;;6.22;0.90;;;13.20;74.60;;;;;;5054637;28;20021;-73
2022/03/18 10:24:14;;;;;;;5.13;0.90;;;14.00;75.10;;;;;;5054697;28;20418;-73
2022/03/18 10:26:39;;;;;;;6.28;1.45;;;15.00;75.50;;;;;;5055012;28;20093;-73
2022/03/18 10:29:11;;;;;;;7.75;1.58;;;15.90;74.50;;;;;;5056271;28;20025;-74
2022/03/18 10:31:39;;;;;;;4.72;1.00;;;16.90;73.10;;;;;;5054201;28;20071;-74
2022/03/18 10:37:12;;;;;;;5.78;1.38;;;18.80;68.80;;;;;;5055623;28;20381;-75
2022/03/18 10:39:50;;;;;;;4.75;1.10;;;19.80;65.40;;;;;;5051504;28;20116;-76
2022/03/18 10:42:20;;;;;;;6.60;1.33;;;20.70;62.30;;;;;;5040190;28;20021;-76
2022/03/18 10:44:54;;;;;;;5.68;1.42;;;21.50;60.40;;;;;;5048859;28;20037;-77
2022/03/18 10:47:36;;;;;;;7.78;1.58;;;22.20;57.30;;;;;;5036790;28;20030;-75
2022/03/18 10:50:11;;;;;;;7.13;1.60;;;23.00;54.10;;;;;;5034041;28;20548;-75
2022/03/18 10:52:48;;;;;;;6.72;1.23;;;23.60;52.30;;;;;;5034942;28;20108;-75
2022/03/18 10:55:22;;;;;;;4.25;0.98;;;24.30;50.40;;;;;;5033800;28;20025;-75
2022/03/18 10:57:56;;;;;;;6.88;1.33;;;24.80;49.00;;;;;;5035082;28;20075;-76
2022/03/18 11:00:25;;;;;;;3.30;0.93;;;25.30;47.80;;;;;;5034255;28;20029;-77
2022/03/18 11:02:52;;;;;;;7.25;0.95;;;25.70;46.60;;;;;;5033722;28;20096;-77
2022/03/18 11:05:20;;;;;;;6.15;1.17;;;26.20;45.40;;;;;;5035114;28;20482;-77
2022/03/18 11:07:52;;;;;;;4.43;1.02;;;26.60;44.00;;;;;;5033610;28;20033;-77
2022/03/18 11:13:04;;;;;;;5.82;1.25;;;27.20;42.10;;;;;;5035191;28;20068;-77
2022/03/18 11:15:32;;;;;;;7.68;1.50;;;27.50;41.50;;;;;;5034916;28;20034;-77
2022/03/18 11:17:58;;;;;;;5.78;1.15;;;27.90;40.60;;;;;;5050866;28;20029;-77
2022/03/18 11:20:27;;;;;;;5.57;1.10;;;28.10;39.90;;;;;;5038385;28;20036;-77
2022/03/18 11:22:56;;;;;;;4.60;1.35;;;28.40;39.10;;;;;;5034729;28;20038;-77
2022/03/18 11:25:23;;;;;;;5.45;1.08;;;28.70;38.60;;;;;;5017458;28;20124;-77
2022/03/18 11:27:51;;;;;;;6.47;1.45;;;28.90;37.90;;;;;;5034805;28;20033;-78
2022/03/18 11:30:25;;;;;;;6.18;1.13;;;29.00;37.50;;;;;;5033362;28;20022;-78
2022/03/18 11:33:09;;;;;;;4.97;1.35;;;29.30;37.40;;;;;;5033550;28;20033;-77
2022/03/18 11:35:49;;;;;;;6.05;1.27;;;29.60;36.00;;;;;;5034693;28;20035;-77
2022/03/18 11:38:17;;;;;;;5.10;1.17;;;29.80;35.60;;;;;;5044997;28;20120;-77
2022/03/18 11:41:01;;;;;;;4.68;1.00;;;29.60;36.10;;;;;;5050109;28;20033;-77
2022/03/18 11:43:48;;;;;;;6.25;1.20;;;29.30;35.50;;;;;;5033030;28;20029;-77
2022/03/18 11:46:14;;;;;;;3.30;0.80;;;29.10;35.50;;;;;;5034632;28;20377;-77
2022/03/18 11:48:54;;;;;;;6.68;1.30;;;28.80;35.50;;;;;;5034443;28;20097;-76
2022/03/18 11:51:24;;;;;;;4.68;1.17;;;28.50;35.20;;;;;;5034263;28;20029;-77
2022/03/18 11:53:54;;;;;;;6.65;1.60;;;28.20;35.10;;;;;;5049323;28;20051;-78
2022/03/18 11:56:42;;;;;;;5.68;1.00;;;28.10;35.80;;;;;;5049413;28;20029;-77
2022/03/18 11:59:27;;;;;;;6.20;1.05;;;27.80;35.10;;;;;;5047091;28;20033;-77
2022/03/18 12:02:09;;;;;;;4.70;1.08;;;27.70;35.20;;;;;;5052608;28;20073;-77
2022/03/18 12:04:46;;;;;;;5.22;1.02;;;27.60;35.20;;;;;;5036067;28;20504;-77
2022/03/18 12:07:19;;;;;;;5.65;1.58;;;27.50;35.10;;;;;;5053883;28;20029;-78
2022/03/18 12:09:55;;;;;;;5.80;1.30;;;27.40;35.00;;;;;;5052634;28;20028;-78
2022/03/18 12:12:28;;;;;;;5.28;1.23;;;27.40;34.90;;;;;;5052384;28;20040;-79
2022/03/18 12:14:56;;;;;;;7.57;1.13;;;27.30;35.00;;;;;;5053438;28;20385;-80
2022/03/18 12:17:23;;;;;;;5.72;0.90;;;27.30;35.10;;;;;;5035166;28;20485;-78
2022/03/18 12:19:54;;;;;;;3.95;1.00;;;27.30;35.10;;;;;;5036394;28;20053;-79
2022/03/18 12:22:22;;;;;;;5.00;1.10;;;27.30;35.10;;;;;;5054079;28;20013;-80
2022/03/18 12:24:49;;;;;;;5.28;1.33;;;27.30;35.10;;;;;;5052235;28;20052;-79
2022/03/18 12:27:26;;;;;;;4.22;1.20;;;27.40;35.00;;;;;;5052312;28;20116;-79
2022/03/18 12:30:00;;;;;;;4.38;1.02;;;27.50;35.00;;;;;;5052520;28;20450;-78
2022/03/18 12:32:26;;;;;;;4.10;0.80;;;27.40;35.10;;;;;;5052337;28;20032;-80
2022/03/18 12:34:54;;;;;;;4.47;0.93;;;27.50;35.20;;;;;;5035501;28;20389;-79
2022/03/18 12:37:31;;;;;;;5.50;1.23;;;27.60;35.20;;;;;;5053538;28;20028;-80
2022/03/18 12:40:13;;;;;;;6.53;1.48;;;27.80;35.20;;;;;;5052298;28;20024;-79
2022/03/18 12:42:49;;;;;;;7.00;1.00;;;27.80;34.90;;;;;;5053437;28;20070;-79
2022/03/18 12:45:42;;;;;;;5.38;1.25;;;27.90;34.90;;;;;;5053686;28;20037;-79
2022/03/18 12:48:16;;;;;;;5.90;1.10;;;27.90;34.50;;;;;;5052802;28;20497;-78
2022/03/18 12:50:47;;;;;;;6.05;1.05;;;27.90;34.70;;;;;;5051984;28;20016;-77
2022/03/18 12:53:13;;;;;;;5.43;1.35;;;27.80;34.80;;;;;;5053576;28;20032;-77
2022/03/18 12:55:39;;;;;;;3.20;0.93;;;27.80;35.00;;;;;;5053334;28;20096;-77
2022/03/18 12:58:06;;;;;;;5.10;1.38;;;27.90;34.70;;;;;;5053354;28;20051;-78
2022/03/18 13:00:43;;;;;;;5.00;1.17;;;27.90;34.70;;;;;;5035997;28;20037;-77
2022/03/18 13:03:20;;;;;;;4.38;1.30;;;28.00;34.50;;;;;;5052830;28;20041;-76
2022/03/18 13:05:50;;;;;;;6.25;1.30;;;28.10;34.50;;;;;;5052243;28;20124;-77
2022/03/18 13:08:16;;;;;;;4.45;0.82;;;28.20;34.60;;;;;;5041534;28;20029;-76
2022/03/18 13:10:55;;;;;;;4.45;1.17;;;28.20;34.60;;;;;;5032198;28;20021;-76
2022/03/18 13:13:20;;;;;;;3.70;1.00;;;28.30;34.60;;;;;;5051594;28;20491;-77
2022/03/18 13:16:03;;;;;;;5.65;1.13;;;28.40;34.40;;;;;;5035373;28;20029;-77
2022/03/18 13:18:34;;;;;;;2.60;0.63;;;28.50;34.30;;;;;;5051546;28;20473;-77
2022/03/18 13:21:03;;;;;;;4.05;0.90;;;28.60;34.40;;;;;;5051699;28;20017;-77
2022/03/18 13:23:30;;;;;;;5.22;0.95;;;28.70;34.40;;;;;;5053414;28;20477;-77